• Join FlightAware (Why Join?)
  • Login
  • US Flag 
09:53PM EDT


 

Airport Tracker/Info


-or-


 

Live Flight TrackerFlight Track Log ✈ AAL1687 ✈ 20-Apr-2013 ✈ KATL - KDFW

Flight Track Log - Related Links

Times and Time Zones

All times are in EDT time to prevent confusion due to time zone crossing. See the AAL1687 flight status page for this flight to view local times or setup timezone preferences in your user account.

Time Position Orientation Groundspeed Altitude Reporting Facility
EDT Latitude Longitude Course Direction KTS MPH feet Rate Location/Type
07:21PM 33.6500 -84.5000 270° West 217 250 3,600  Level Atlanta TRACON
07:22PM 33.6667 -84.5833 284° West 265 305 6,500 3,180 Climbing Atlanta TRACON
07:23PM 33.8000 -84.2969 270° West  Level FlightAware Approximate
07:23PM 33.6833 -84.6667 284° West 270 311 9,700  Level Atlanta TRACON
07:24PM 33.8001 -84.4123 270° West  Level FlightAware Approximate
07:25PM 33.8000 -84.5277 270° West  Level FlightAware Approximate
07:25PM 33.7222 -84.9156 281° West 341 392 14,700  Level Atlanta Center
07:26PM 33.8000 -84.6431 270° West  Level FlightAware Approximate
07:26PM 33.7400 -85.0356 280° West 366 421 17,300  Level Atlanta Center
07:27PM 33.7578 -85.1606 280° West 371 427 19,500 2,100 Climbing Atlanta Center
07:28PM 33.7775 -85.2883 281° West 376 433 21,600 1,980 Climbing Atlanta Center
07:29PM 33.8011 -85.4186 282° West 392 451 23,500 1,860 Climbing Atlanta Center
07:30PM 33.8247 -85.5542 282° West 411 473 25,400 2,100 Climbing Atlanta Center
07:31PM 33.8500 -85.6847 283° West 411 473 27,700 1,980 Climbing Atlanta Center
07:32PM 33.8861 -85.7931 292° West 405 466 29,400 1,620 Climbing Atlanta Center
07:33PM 33.9242 -85.9114 291° West 391 450 31,000 1,500 Climbing Atlanta Center
07:34PM 33.9617 -86.0325 291° West 391 450 32,500 1,260 Climbing Atlanta Center
07:35PM 33.9975 -86.1511 290° West 391 450 33,600 720 Climbing Atlanta Center
07:36PM 34.0308 -86.2722 288° West 386 444 34,000 180 Climbing Atlanta Center
07:37PM 34.0639 -86.3933 288° West 386 444 34,000  Level Atlanta Center
07:38PM 34.0992 -86.5147 289° West 386 444 34,000  Level Atlanta Center
07:39PM 34.1322 -86.6361 288° West 386 444 34,000  Level Atlanta Center
07:40PM 34.1669 -86.7578 289° West 381 438 34,000  Level Atlanta Center
07:41PM 34.1803 -86.8094 287° West 385 443 34,000 60 Level Memphis Center
07:42PM 34.2131 -86.9361 287° West 390 449 34,100  Climbing Memphis Center
07:43PM 34.2478 -87.0581 289° West 390 449 34,000 -60 Descending Memphis Center
07:44PM 34.2822 -87.1822 289° West 396 456 34,000  Level Memphis Center
07:45PM 34.3167 -87.3017 289° West 383 441 34,000  Level Memphis Center
07:46PM 34.3508 -87.4239 289° West 383 441 34,000  Level Memphis Center
07:47PM 34.3850 -87.5458 289° West 383 441 34,000  Level Memphis Center
07:48PM 34.4169 -87.6683 288° West 383 441 34,000  Level Memphis Center
07:49PM 34.4528 -87.7931 289° West 383 441 34,000  Level Memphis Center
07:50PM 34.4847 -87.9256 286° West 377 434 34,000  Level Memphis Center
07:51PM 34.5164 -88.0483 287° West 377 434 34,000  Level Memphis Center
07:52PM 34.5500 -88.1708 288° West 377 434 34,000  Level Memphis Center
07:53PM 34.5833 -88.3011 287° West 385 443 34,000  Level Memphis Center
07:54PM 34.6167 -88.4242 288° West 385 443 34,000  Level Memphis Center
07:55PM 34.6475 -88.5394 288° West 367 422 34,000  Level Memphis Center
07:56PM 34.6764 -88.6625 286° West 367 422 34,000  Level Memphis Center
07:57PM 34.6822 -88.7886 273° West 377 434 34,000  Level Memphis Center
07:58PM 34.6819 -88.9175 270° West 372 428 34,000  Level Memphis Center
07:59PM 34.6808 -89.0286 269° West 377 434 34,000  Level Memphis Center
08:00PM 34.6822 -89.1550 271° West 377 434 34,000  Level Memphis Center
08:01PM 34.6833 -89.2811 271° West 377 434 34,000  Level Memphis Center
08:02PM 34.6844 -89.4075 271° West 382 440 34,000  Level Memphis Center
08:03PM 34.6853 -89.5336 270° West 382 440 34,000  Level Memphis Center
08:04PM 34.6842 -89.6728 269° West 382 440 34,000  Level Memphis Center
08:05PM 34.6828 -89.8014 269° West 382 440 34,000  Level Memphis Center
08:06PM 34.6853 -89.9303 271° West 382 440 34,000  Level Memphis Center
08:07PM 34.6897 -90.0567 272° West 377 434 34,000  Level Memphis Center
08:08PM 34.6900 -90.1828 270° West 377 434 34,000  Level Memphis Center
08:09PM 34.6903 -90.2964 270° West 377 434 34,000  Level Memphis Center
08:10PM 34.6903 -90.4228 270° West 382 440 34,000  Level Memphis Center
08:11PM 34.6900 -90.5492 270° West 382 440 34,000  Level Memphis Center
08:12PM 34.6897 -90.6728 270° West 377 434 34,000  Level Memphis Center
08:13PM 34.6894 -90.7967 270° West 377 434 34,000  Level Memphis Center
08:14PM 34.6869 -90.9356 269° West 377 434 34,000  Level Memphis Center
08:15PM 34.6883 -91.0617 271° West 377 434 34,000  Level Memphis Center
08:16PM 34.6897 -91.1881 271° West 382 440 34,000  Level Memphis Center
08:17PM 34.6867 -91.3144 268° West 382 440 34,000  Level Memphis Center
08:18PM 34.6878 -91.4381 271° West 376 433 34,000  Level Memphis Center
08:19PM 34.6867 -91.5619 269° West 376 433 34,000  Level Memphis Center
08:20PM 34.6853 -91.6856 269° West 371 427 34,000  Level Memphis Center
08:21PM 34.6819 -91.7942 268° West 366 421 34,000  Level Memphis Center
08:22PM 34.6825 -91.9203 270° West 366 421 34,000  Level Memphis Center
08:23PM 34.6811 -92.0442 269° West 371 427 34,000  Level Memphis Center
08:24PM 34.6772 -92.1703 268° West 371 427 34,000  Level Memphis Center
08:25PM 34.6483 -92.2883 253° West 371 427 34,000  Level Memphis Center
08:26PM 34.6172 -92.4064 252° West 371 427 34,000  Level Memphis Center
08:27PM 34.5858 -92.5267 252° West 376 433 34,000  Level Memphis Center
08:28PM 34.5544 -92.6494 253° West 381 438 34,000  Level Memphis Center
08:29PM 34.5211 -92.7669 251° West 381 438 34,000  Level Memphis Center
08:30PM 34.4892 -92.8944 253° West 376 433 34,000  Level Memphis Center
08:31PM 34.4556 -93.0144 251° West 371 427 34,000  Level Memphis Center
08:32PM 34.4236 -93.1344 252° West 377 434 34,000  Level Memphis Center
08:33PM 34.3917 -93.2517 252° West 377 434 34,000  Level Memphis Center
08:34PM 34.3589 -93.3783 253° West 365 420 34,000  Level Fort Worth Center
08:35PM 34.3272 -93.4981 252° West 371 427 34,000  Level Fort Worth Center
08:36PM 34.2953 -93.6128 251° West 371 427 34,000  Level Fort Worth Center
08:37PM 34.2614 -93.7347 251° West 371 427 34,000  Level Fort Worth Center
08:38PM 34.2292 -93.8492 251° West 371 427 34,000  Level Fort Worth Center
08:39PM 34.1992 -93.9658 253° West 371 427 34,000 -300 Level Fort Worth Center
08:40PM 34.1667 -94.0800 251° West 371 427 33,400 -660 Descending Fort Worth Center
08:41PM 34.1381 -94.1867 252° West 363 418 32,700 -840 Descending Fort Worth Center
08:42PM 34.1075 -94.2906 250° West 346 398 31,800 -900 Descending Fort Worth Center
08:43PM 34.0786 -94.3919 251° West 338 389 31,000 -780 Descending Fort Worth Center
08:44PM 34.0478 -94.4958 250° West 331 381 30,300 -720 Descending Fort Worth Center
08:45PM 34.0186 -94.5994 251° West 331 381 29,600 -840 Descending Fort Worth Center
08:46PM 33.9878 -94.7056 251° West 331 381 28,700 -1,020 Descending Fort Worth Center
08:47PM 33.9528 -94.8269 251° West 359 413 27,600 -960 Descending Fort Worth Center
08:48PM 33.9156 -94.9481 250° West 381 438 26,800 -780 Descending Fort Worth Center
08:49PM 33.8803 -95.0742 251° West 394 453 26,100 -720 Descending Fort Worth Center
08:50PM 33.8450 -95.1953 251° West 394 453 25,400 -720 Descending Fort Worth Center
08:51PM 33.8094 -95.3161 251° West 394 453 24,700 -600 Descending Fort Worth Center
08:52PM 33.7717 -95.4344 249° West 389 448 24,200 -660 Descending Fort Worth Center
08:53PM 33.7361 -95.5553 251° West 389 448 23,400 -1,260 Descending Fort Worth Center
08:54PM 33.7025 -95.6883 253° West 389 448 21,700 -1,800 Descending Fort Worth Center
08:55PM 33.6686 -95.8061 251° West 389 448 19,900 -1,920 Descending Fort Worth Center
08:56PM 33.6322 -95.9217 249° West 384 442 17,900 -1,920 Descending Fort Worth Center
08:57PM 33.5981 -96.0344 250° West 373 429 16,100 -1,980 Descending Fort Worth Center
08:58PM 33.5639 -96.1472 250° West 373 429 14,000 -1,920 Descending Fort Worth Center
08:59PM 33.5253 -96.2522 246° West 367 422 12,300 -1,500 Descending Fort Worth Center
09:00PM 33.4569 -96.3303 224° Southwest 340 391 11,000 -660 Descending Fort Worth Center
09:01PM 33.4014 -96.3983 226° Southwest 310 357 11,000 -900 Level Fort Worth Center
09:02PM 33.3494 -96.4611 225° Southwest 282 325 9,300 -1,500 Descending Fort Worth Center
09:03PM 33.3042 -96.5336 233° Southwest 276 318 8,000 -1,560 Descending Fort Worth Center
09:04PM 33.2650 -96.6061 237° Southwest 264 304 6,200 -1,440 Descending Fort Worth Center
09:05PM 33.2258 -96.6808 238° Southwest 269 310 5,200 -600 Descending Fort Worth Center
09:06PM 33.1867 -96.7581 239° Southwest 269 310 5,000 -120 Descending Fort Worth Center
09:07PM 33.1453 -96.8303 236° Southwest 269 310 5,000 -600 Level Fort Worth Center
09:08PM 33.1100 -96.8975 238° Southwest 274 315 3,800 -1,080 Descending Fort Worth Center
09:08PM 33.0833 -96.9500 239° Southwest 244 281 3,300 -600 Descending Dallas / Fort Worth TRACON
09:09PM 33.0500 -97.0000 232° Southwest 183 211 2,900 -420 Descending Dallas / Fort Worth TRACON